Time;durP1;ratioP1;P1;durP2;ratioP2;P2;SDS_P1;SDS_P2;PMS_P1;PMS_P2;Temp;Humidity;BMP_temperature;BMP_pressure;BME280_temperature;BME280_humidity;BME280_pressure;Samples;Min_cycle;Max_cycle;Signal;HPM_P1;HPM_P2
2022/04/01 00:00:10;;;;;;;14.27;10.30;;;6.90;99.90;;;;;;5060876;28;20246;-62
2022/04/01 00:02:37;;;;;;;13.90;10.50;;;6.80;99.90;;;;;;5064782;28;20515;-62
2022/04/01 00:05:03;;;;;;;12.93;10.95;;;7.00;99.90;;;;;;5063390;28;20189;-61
2022/04/01 00:07:29;;;;;;;13.40;9.70;;;7.00;99.90;;;;;;5056829;28;20233;-61
2022/04/01 00:09:55;;;;;;;15.50;10.97;;;6.60;99.90;;;;;;5055707;28;20216;-61
2022/04/01 00:12:20;;;;;;;13.47;10.40;;;7.10;99.90;;;;;;5057283;28;20520;-61
2022/04/01 00:14:46;;;;;;;11.67;10.47;;;6.60;99.90;;;;;;5059345;28;20213;-61
2022/04/01 00:17:12;;;;;;;11.87;10.03;;;6.60;99.90;;;;;;5060831;28;20709;-62
2022/04/01 00:19:37;;;;;;;13.10;9.87;;;6.90;99.90;;;;;;5059496;28;20182;-62
2022/04/01 00:22:04;;;;;;;9.70;8.40;;;7.00;99.90;;;;;;5064678;28;20216;-61
2022/04/01 00:24:30;;;;;;;11.38;9.55;;;7.00;99.90;;;;;;5059708;28;20658;-62
2022/04/01 00:26:57;;;;;;;12.88;10.10;;;7.00;99.90;;;;;;5057126;28;20188;-62
2022/04/01 00:29:22;;;;;;;11.93;9.95;;;7.10;99.90;;;;;;5061566;28;20673;-61
2022/04/01 00:31:58;;;;;;;13.27;9.60;;;6.90;99.90;;;;;;5064624;28;20200;-61
2022/04/01 00:34:26;;;;;;;15.45;10.00;;;6.80;99.90;;;;;;5058084;28;20181;-61
2022/04/01 00:36:52;;;;;;;13.60;10.18;;;6.80;99.90;;;;;;5059751;28;20255;-62
2022/04/01 00:39:19;;;;;;;12.15;10.30;;;6.70;99.90;;;;;;5058984;28;20208;-61
2022/04/01 00:41:46;;;;;;;14.05;10.75;;;7.00;99.90;;;;;;5057347;28;20259;-61
2022/04/01 00:44:19;;;;;;;13.25;10.95;;;6.90;99.90;;;;;;5056279;28;20192;-62
2022/04/01 00:46:48;;;;;;;12.93;10.40;;;6.90;99.90;;;;;;5057224;28;20177;-62
2022/04/01 00:49:14;;;;;;;14.13;10.57;;;7.10;99.90;;;;;;5061498;28;20185;-61
2022/04/01 00:51:43;;;;;;;12.10;9.63;;;6.80;99.90;;;;;;5057038;28;20205;-61
2022/04/01 00:54:10;;;;;;;12.05;9.70;;;6.90;99.90;;;;;;5061827;28;21156;-61
2022/04/01 00:56:37;;;;;;;12.57;10.13;;;7.10;99.90;;;;;;5058146;28;20197;-61
2022/04/01 00:59:03;;;;;;;12.20;10.02;;;6.90;99.90;;;;;;5062847;28;20205;-61
2022/04/01 01:01:35;;;;;;;12.30;10.40;;;7.00;99.90;;;;;;5052614;28;20254;-61
2022/04/01 01:04:03;;;;;;;11.52;9.05;;;6.90;99.90;;;;;;5060992;28;20189;-61
2022/04/01 01:06:30;;;;;;;13.40;9.70;;;6.80;99.90;;;;;;5056816;28;20192;-61
2022/04/01 01:08:57;;;;;;;14.52;10.15;;;6.60;99.90;;;;;;5061476;28;20728;-61
2022/04/01 01:11:22;;;;;;;13.35;10.98;;;6.70;99.90;;;;;;5060699;28;20193;-62
2022/04/01 01:13:48;;;;;;;13.53;10.40;;;6.20;99.90;;;;;;5058745;28;20204;-61
2022/04/01 01:16:14;;;;;;;15.18;10.48;;;6.90;99.90;;;;;;5060116;28;20185;-61
2022/04/01 01:18:40;;;;;;;14.23;10.37;;;6.70;99.90;;;;;;5058071;28;20215;-61
2022/04/01 01:21:09;;;;;;;10.67;9.53;;;6.50;99.90;;;;;;5055490;28;20930;-61
2022/04/01 01:23:37;;;;;;;11.98;9.55;;;6.70;99.90;;;;;;5057593;28;20694;-61
2022/04/01 01:26:03;;;;;;;10.85;8.68;;;6.70;99.90;;;;;;5041899;28;20564;-61
2022/04/01 01:31:13;;;;;;;10.25;9.07;;;6.70;99.90;;;;;;5056288;28;20192;-61
2022/04/01 01:33:40;;;;;;;10.23;9.10;;;6.80;99.90;;;;;;5061099;28;20622;-61
2022/04/01 01:36:06;;;;;;;13.38;10.02;;;6.70;99.90;;;;;;5050207;28;20737;-61
2022/04/01 01:38:32;;;;;;;10.40;8.30;;;6.70;99.90;;;;;;5053187;28;20302;-61
2022/04/01 01:40:58;;;;;;;11.00;9.43;;;6.50;99.90;;;;;;5053919;28;20180;-61
2022/04/01 01:43:24;;;;;;;10.60;9.10;;;6.60;99.90;;;;;;5052179;28;20213;-61
2022/04/01 01:45:49;;;;;;;9.95;8.15;;;6.70;99.90;;;;;;5052326;28;20180;-61
2022/04/01 01:48:17;;;;;;;10.30;8.80;;;6.60;99.90;;;;;;5054547;28;20543;-61
2022/04/01 01:56:10;;;;;;;9.32;8.20;;;6.30;99.90;;;;;;5055503;28;20828;-62
2022/04/01 01:58:36;;;;;;;10.47;8.93;;;6.40;99.90;;;;;;5060790;28;20213;-62
2022/04/01 02:01:02;;;;;;;12.13;9.30;;;6.20;99.90;;;;;;5053656;28;20188;-61
2022/04/01 02:03:27;;;;;;;11.50;9.07;;;6.10;99.90;;;;;;5061354;28;20214;-61
2022/04/01 02:05:53;;;;;;;12.63;10.50;;;5.80;99.90;;;;;;5042374;28;20237;-61
2022/04/01 02:08:18;;;;;;;11.37;8.80;;;6.40;99.90;;;;;;5069613;28;20196;-61
2022/04/01 02:10:44;;;;;;;12.10;9.70;;;5.70;99.90;;;;;;5061092;28;20272;-61
2022/04/01 02:13:10;;;;;;;10.80;9.03;;;6.40;99.90;;;;;;5059794;28;20463;-61
2022/04/01 02:15:35;;;;;;;11.77;9.37;;;6.20;99.90;;;;;;5050556;28;20681;-61
2022/04/01 02:18:02;;;;;;;10.47;8.80;;;6.40;99.90;;;;;;5063498;28;20215;-61
2022/04/01 02:20:31;;;;;;;10.55;8.70;;;6.50;99.90;;;;;;5057586;28;20189;-61
2022/04/01 02:22:58;;;;;;;11.10;9.18;;;6.60;99.90;;;;;;5056632;28;20614;-61
2022/04/01 02:25:23;;;;;;;11.55;9.27;;;6.60;99.90;;;;;;5059145;28;20173;-62
2022/04/01 02:27:49;;;;;;;11.20;9.70;;;6.30;99.90;;;;;;5059121;28;20595;-61
2022/04/01 02:30:14;;;;;;;11.13;9.47;;;6.60;99.90;;;;;;5051387;28;20197;-62
2022/04/01 02:32:41;;;;;;;11.60;9.13;;;6.50;99.90;;;;;;5036486;28;20204;-61
2022/04/01 02:35:09;;;;;;;12.50;10.30;;;6.20;99.90;;;;;;5058743;28;20180;-62
2022/04/01 02:37:36;;;;;;;11.60;9.77;;;6.40;99.90;;;;;;5062377;28;20665;-62
2022/04/01 02:40:04;;;;;;;12.77;10.60;;;6.60;99.90;;;;;;5051643;28;20211;-62
2022/04/01 02:42:29;;;;;;;11.00;9.52;;;6.20;99.90;;;;;;5056545;28;20197;-62
2022/04/01 02:44:56;;;;;;;11.23;9.67;;;6.30;99.90;;;;;;5050766;28;20188;-62
2022/04/01 02:47:21;;;;;;;12.48;9.85;;;6.20;99.90;;;;;;5061183;28;20557;-62
2022/04/01 02:49:47;;;;;;;13.33;9.33;;;6.30;99.90;;;;;;5055823;28;20273;-61
2022/04/01 02:52:13;;;;;;;10.97;9.73;;;6.40;99.90;;;;;;5062351;28;20508;-61
2022/04/01 02:54:39;;;;;;;12.10;10.02;;;6.60;99.90;;;;;;5063382;28;20533;-62
2022/04/01 02:57:05;;;;;;;12.10;10.03;;;6.40;99.90;;;;;;5052050;28;20203;-61
2022/04/01 02:59:31;;;;;;;12.30;9.70;;;6.20;99.90;;;;;;5054774;28;20189;-61
2022/04/01 03:01:56;;;;;;;9.63;8.27;;;5.80;99.90;;;;;;5057354;28;20463;-61
2022/04/01 03:04:22;;;;;;;11.47;9.43;;;6.30;99.90;;;;;;5058288;28;20227;-62
2022/04/01 03:06:48;;;;;;;13.30;10.80;;;6.30;99.90;;;;;;5050723;28;20815;-62
2022/04/01 03:09:14;;;;;;;12.50;9.90;;;6.30;99.90;;;;;;5062774;28;20518;-62
2022/04/01 03:11:41;;;;;;;14.33;10.67;;;6.50;99.90;;;;;;5053838;28;20462;-62
2022/04/01 03:14:09;;;;;;;13.45;11.65;;;6.20;99.90;;;;;;5059765;28;20565;-61
2022/04/01 03:16:38;;;;;;;12.45;9.95;;;6.00;99.90;;;;;;5055587;28;20701;-61
2022/04/01 03:19:10;;;;;;;12.70;10.27;;;6.30;99.90;;;;;;5068776;28;20224;-62
2022/04/01 03:21:39;;;;;;;11.60;10.05;;;6.30;99.90;;;;;;5057445;28;20212;-61
2022/04/01 03:24:06;;;;;;;13.57;10.45;;;6.60;99.90;;;;;;5061752;28;20181;-61
2022/04/01 03:26:32;;;;;;;12.20;9.25;;;6.20;99.90;;;;;;5066871;28;20185;-61
2022/04/01 03:29:01;;;;;;;12.50;10.57;;;6.70;99.90;;;;;;5056125;28;20197;-61
2022/04/01 03:31:28;;;;;;;14.90;10.70;;;6.60;99.90;;;;;;5059732;28;21091;-61
2022/04/01 03:33:54;;;;;;;11.68;9.35;;;6.60;99.90;;;;;;5065392;28;20199;-61
2022/04/01 03:36:20;;;;;;;12.40;9.70;;;6.60;99.90;;;;;;5060494;28;20548;-61
2022/04/01 03:38:46;;;;;;;12.60;10.57;;;7.00;99.90;;;;;;5066283;28;20241;-61
2022/04/01 03:41:12;;;;;;;12.43;10.68;;;6.50;99.90;;;;;;5060382;28;20772;-62
2022/04/01 03:43:37;;;;;;;14.10;11.37;;;6.00;99.90;;;;;;5056822;28;20208;-61
2022/04/01 03:46:18;;;;;;;12.80;10.77;;;6.30;99.90;;;;;;5061115;28;20178;-62
2022/04/01 03:48:51;;;;;;;14.82;12.13;;;6.40;99.90;;;;;;5058822;28;20173;-62
2022/04/01 03:51:25;;;;;;;14.30;12.00;;;6.40;99.90;;;;;;5058848;28;20223;-61
2022/04/01 03:54:01;;;;;;;14.57;12.02;;;6.40;99.90;;;;;;5057890;28;20179;-62
2022/04/01 03:56:34;;;;;;;15.45;12.05;;;6.30;99.90;;;;;;5067106;28;20188;-61
2022/04/01 03:59:02;;;;;;;18.10;13.48;;;5.70;99.90;;;;;;5055050;28;20301;-61
2022/04/01 04:01:27;;;;;;;15.40;12.20;;;6.30;99.90;;;;;;5063629;28;20184;-61
2022/04/01 04:03:56;;;;;;;14.60;12.20;;;6.20;99.90;;;;;;5057291;28;20306;-61
2022/04/01 04:06:22;;;;;;;14.75;10.80;;;6.20;99.90;;;;;;5060051;28;20184;-61
2022/04/01 04:08:50;;;;;;;10.95;9.05;;;6.40;99.90;;;;;;5053902;28;20236;-61
2022/04/01 04:11:18;;;;;;;13.23;10.35;;;6.30;99.90;;;;;;5059803;28;20208;-61
2022/04/01 04:13:45;;;;;;;12.18;10.60;;;6.20;99.90;;;;;;5057352;28;20324;-61
2022/04/01 04:16:24;;;;;;;12.43;10.73;;;5.80;99.90;;;;;;5056464;28;20214;-62
2022/04/01 04:19:02;;;;;;;15.77;10.35;;;6.30;99.90;;;;;;5060912;28;20557;-62
2022/04/01 04:21:30;;;;;;;11.80;9.75;;;5.90;99.90;;;;;;5054715;28;20180;-61
2022/04/01 04:24:01;;;;;;;13.43;10.75;;;5.90;99.90;;;;;;5059245;28;20187;-61
2022/04/01 04:26:45;;;;;;;13.10;10.38;;;6.10;99.90;;;;;;5058374;28;20180;-61
2022/04/01 04:29:13;;;;;;;14.70;10.93;;;6.00;99.90;;;;;;5044012;28;20203;-61
2022/04/01 04:31:48;;;;;;;13.63;10.65;;;6.20;99.90;;;;;;5054925;28;20646;-61
2022/04/01 04:34:17;;;;;;;13.80;10.80;;;6.10;99.90;;;;;;5057499;28;20197;-61
2022/04/01 04:36:43;;;;;;;10.45;9.10;;;5.90;99.90;;;;;;5052448;28;20234;-62
2022/04/01 04:39:30;;;;;;;11.32;8.60;;;5.40;99.90;;;;;;5055537;28;20201;-62
2022/04/01 04:41:56;;;;;;;13.70;10.05;;;6.40;99.90;;;;;;5057859;28;20203;-61
2022/04/01 04:44:28;;;;;;;14.20;9.52;;;6.00;99.90;;;;;;5055484;28;20191;-61
2022/04/01 04:46:59;;;;;;;11.60;9.32;;;6.10;99.90;;;;;;5050670;28;20223;-61
2022/04/01 04:49:29;;;;;;;15.30;13.70;;;6.00;99.90;;;;;;5056953;28;20219;-62
2022/04/01 04:51:56;;;;;;;13.55;11.20;;;5.70;99.90;;;;;;5047598;28;20219;-61
2022/04/01 04:54:24;;;;;;;16.67;11.15;;;5.60;99.90;;;;;;5056360;28;20266;-61
2022/04/01 04:56:50;;;;;;;12.45;10.20;;;5.70;99.90;;;;;;5062024;28;20190;-61
2022/04/01 04:59:22;;;;;;;13.45;10.82;;;5.70;99.90;;;;;;5058044;28;20265;-61
2022/04/01 05:02:04;;;;;;;11.20;9.93;;;5.80;99.90;;;;;;5061197;28;20218;-61
2022/04/01 05:04:54;;;;;;;12.13;8.65;;;5.80;99.90;;;;;;5059848;28;20179;-61
2022/04/01 05:07:44;;;;;;;11.43;8.77;;;5.60;99.90;;;;;;5021654;28;1053265;-62
2022/04/01 05:10:18;;;;;;;10.45;7.85;;;5.60;99.90;;;;;;5061488;28;20459;-61
2022/04/01 05:13:02;;;;;;;14.18;10.65;;;5.70;99.90;;;;;;5057454;28;20255;-61
2022/04/01 05:15:32;;;;;;;13.20;10.38;;;5.50;99.90;;;;;;5055185;28;20595;-61
2022/04/01 05:18:09;;;;;;;13.43;9.77;;;5.60;99.90;;;;;;5060579;28;20216;-61
2022/04/01 05:20:38;;;;;;;13.05;9.32;;;5.80;99.90;;;;;;5055203;28;22146;-62
2022/04/01 05:23:11;;;;;;;11.80;9.40;;;6.00;99.90;;;;;;5046957;28;20664;-62
2022/04/01 05:25:45;;;;;;;12.27;10.15;;;5.70;99.90;;;;;;5067094;28;20190;-62
2022/04/01 05:28:23;;;;;;;10.82;9.38;;;5.70;99.90;;;;;;5056859;28;20240;-62
2022/04/01 05:31:04;;;;;;;12.00;9.65;;;5.60;99.90;;;;;;5064302;28;21082;-62
2022/04/01 05:33:40;;;;;;;11.57;8.85;;;5.80;99.90;;;;;;5055779;28;20287;-62
2022/04/01 05:36:09;;;;;;;11.77;9.90;;;5.80;99.90;;;;;;5052843;28;20223;-62
2022/04/01 05:38:35;;;;;;;12.07;9.55;;;5.60;99.90;;;;;;5062930;28;20278;-62
2022/04/01 05:41:02;;;;;;;12.40;9.55;;;5.80;99.90;;;;;;5061092;28;20211;-61
2022/04/01 05:43:29;;;;;;;12.05;10.68;;;5.30;99.90;;;;;;5053203;28;20692;-62
2022/04/01 05:45:56;;;;;;;11.75;9.85;;;5.70;99.90;;;;;;5043195;28;20182;-62
2022/04/01 05:48:22;;;;;;;12.95;9.95;;;5.60;99.90;;;;;;5055372;28;20195;-68
2022/04/01 05:50:51;;;;;;;12.55;9.70;;;5.70;99.90;;;;;;5043128;28;20192;-68
2022/04/01 05:53:20;;;;;;;12.73;9.73;;;5.80;99.90;;;;;;5036650;28;20212;-72
2022/04/01 05:55:47;;;;;;;11.18;9.48;;;5.40;99.90;;;;;;5032670;28;20240;-65
2022/04/01 05:58:12;;;;;;;12.75;10.05;;;5.30;99.90;;;;;;5049987;28;20210;-64
2022/04/01 06:01:01;;;;;;;11.83;9.20;;;5.60;99.90;;;;;;5052627;28;20553;-63
2022/04/01 06:03:52;;;;;;;11.20;9.25;;;5.70;99.90;;;;;;5032946;28;20236;-63
2022/04/01 06:06:25;;;;;;;11.05;9.57;;;5.50;99.90;;;;;;5053489;28;20216;-63
2022/04/01 06:09:04;;;;;;;12.30;10.25;;;5.30;99.90;;;;;;5055204;28;20317;-63
2022/04/01 06:11:53;;;;;;;13.95;10.82;;;5.40;99.90;;;;;;5053302;28;20303;-63
2022/04/01 06:14:43;;;;;;;12.95;10.27;;;5.00;99.90;;;;;;5037404;28;20210;-63
2022/04/01 06:17:33;;;;;;;15.20;11.20;;;5.70;99.90;;;;;;5054411;28;20362;-67
2022/04/01 06:20:03;;;;;;;12.00;9.25;;;5.50;99.90;;;;;;5054030;28;20197;-63
2022/04/01 06:22:33;;;;;;;13.07;10.02;;;5.50;99.90;;;;;;5052783;28;20223;-63
2022/04/01 06:25:10;;;;;;;12.80;9.88;;;5.60;99.90;;;;;;5059035;28;20191;-63
2022/04/01 06:27:53;;;;;;;11.90;9.43;;;5.40;99.90;;;;;;5058439;28;20531;-65
2022/04/01 06:30:21;;;;;;;11.30;9.18;;;5.60;99.90;;;;;;5051031;28;20256;-66
2022/04/01 06:32:56;;;;;;;13.18;10.00;;;5.40;99.90;;;;;;5058240;28;20241;-65
2022/04/01 06:35:30;;;;;;;12.60;11.10;;;5.60;99.90;;;;;;5050622;28;20182;-64
2022/04/01 06:38:07;;;;;;;13.93;10.10;;;5.30;99.90;;;;;;5058000;28;20300;-65
2022/04/01 06:40:40;;;;;;;12.20;10.10;;;5.10;99.90;;;;;;5055726;28;20202;-64
2022/04/01 06:43:07;;;;;;;14.13;10.73;;;5.50;99.90;;;;;;5047966;28;20662;-64
2022/04/01 06:45:33;;;;;;;13.70;10.70;;;5.10;99.90;;;;;;5050037;28;20190;-64
2022/04/01 06:47:59;;;;;;;15.30;11.43;;;5.40;99.90;;;;;;5049976;28;20187;-63
2022/04/01 06:50:24;;;;;;;13.73;10.17;;;5.80;99.90;;;;;;5044939;28;22541;-65
2022/04/01 06:52:50;;;;;;;14.37;11.13;;;5.20;99.90;;;;;;5032001;28;20214;-64
2022/04/01 06:55:16;;;;;;;12.50;10.60;;;5.40;99.90;;;;;;5043658;28;20564;-65
2022/04/01 06:57:42;;;;;;;14.50;10.57;;;5.70;99.90;;;;;;5049549;28;20209;-64
2022/04/01 07:00:12;;;;;;;13.32;10.63;;;5.50;99.90;;;;;;5049336;28;20449;-67
2022/04/01 07:02:38;;;;;;;11.35;9.55;;;5.50;99.90;;;;;;5059546;28;20233;-65
2022/04/01 07:05:05;;;;;;;13.33;11.30;;;5.50;99.90;;;;;;5050967;28;20681;-63
2022/04/01 07:07:32;;;;;;;13.35;11.38;;;5.60;99.90;;;;;;5052650;28;20223;-65
2022/04/01 07:09:57;;;;;;;14.65;11.20;;;5.90;99.90;;;;;;5049697;28;20182;-67
2022/04/01 07:12:23;;;;;;;12.60;11.00;;;4.80;99.90;;;;;;5057022;28;20214;-64
2022/04/01 07:14:49;;;;;;;11.70;9.82;;;5.40;99.90;;;;;;5053719;28;20187;-70
2022/04/01 07:17:15;;;;;;;13.18;11.00;;;5.50;99.90;;;;;;5055559;28;20191;-68
2022/04/01 07:19:41;;;;;;;13.80;11.67;;;5.80;99.90;;;;;;5050934;28;20709;-63
2022/04/01 07:22:06;;;;;;;13.90;12.40;;;4.80;99.90;;;;;;5060688;28;20229;-62
2022/04/01 07:24:32;;;;;;;14.67;11.93;;;5.30;99.90;;;;;;5050479;28;20675;-65
2022/04/01 07:26:58;;;;;;;14.10;11.20;;;5.20;99.90;;;;;;5039132;28;20187;-65
2022/04/01 07:29:24;;;;;;;15.10;11.50;;;5.30;99.90;;;;;;5055918;28;20438;-65
2022/04/01 07:34:36;;;;;;;13.52;10.95;;;5.80;99.90;;;;;;5050337;28;20195;-64
2022/04/01 07:37:03;;;;;;;13.02;11.00;;;5.50;99.90;;;;;;5053056;28;20714;-62
2022/04/01 07:39:28;;;;;;;15.40;12.13;;;5.20;99.90;;;;;;5061713;28;20290;-62
2022/04/01 07:41:54;;;;;;;14.63;11.70;;;5.30;99.90;;;;;;5056124;28;20289;-64
2022/04/01 07:44:21;;;;;;;15.90;11.80;;;5.30;99.90;;;;;;5046194;28;20542;-63
2022/04/01 07:46:48;;;;;;;13.50;11.25;;;5.30;99.90;;;;;;5058618;28;20986;-67
2022/04/01 07:49:14;;;;;;;13.40;11.07;;;5.10;99.90;;;;;;5058790;28;20207;-65
2022/04/01 07:51:40;;;;;;;13.63;12.10;;;5.30;99.90;;;;;;5057037;28;20225;-63
2022/04/01 07:54:05;;;;;;;14.57;12.40;;;4.70;99.90;;;;;;5057635;28;20258;-62
2022/04/01 07:56:31;;;;;;;14.07;11.50;;;5.50;99.90;;;;;;5060124;28;20190;-63
2022/04/01 07:59:00;;;;;;;14.00;11.13;;;5.30;99.90;;;;;;5052833;28;20215;-63
2022/04/01 08:01:26;;;;;;;13.40;11.48;;;4.80;99.90;;;;;;5056214;28;20440;-63
2022/04/01 08:03:51;;;;;;;14.32;11.25;;;5.60;99.90;;;;;;5056046;28;20629;-65
2022/04/01 08:06:17;;;;;;;13.70;11.30;;;5.80;99.90;;;;;;5057300;28;20190;-68
2022/04/01 08:08:43;;;;;;;14.67;12.40;;;5.60;99.90;;;;;;5064170;28;20207;-64
2022/04/01 08:11:08;;;;;;;14.23;11.53;;;5.70;99.90;;;;;;5061674;28;20673;-68
2022/04/01 08:13:34;;;;;;;13.00;10.50;;;5.50;99.90;;;;;;5062446;28;20211;-61
2022/04/01 08:16:00;;;;;;;13.60;11.97;;;5.60;99.90;;;;;;5063288;28;20201;-60
2022/04/01 08:18:27;;;;;;;16.20;12.73;;;5.50;99.90;;;;;;5044548;28;20492;-63
2022/04/01 08:20:53;;;;;;;14.10;11.35;;;5.50;99.90;;;;;;5058509;28;20184;-63
2022/04/01 08:23:19;;;;;;;15.52;12.02;;;5.60;99.90;;;;;;5065344;28;20214;-62
2022/04/01 08:25:45;;;;;;;14.05;11.00;;;5.70;99.90;;;;;;5062557;28;20182;-65
2022/04/01 08:28:12;;;;;;;14.00;11.95;;;5.30;99.90;;;;;;5057608;28;20233;-62
2022/04/01 08:30:39;;;;;;;15.73;12.02;;;5.70;99.90;;;;;;5060779;28;20190;-65
2022/04/01 08:33:05;;;;;;;14.07;11.95;;;5.80;99.90;;;;;;5063118;28;20203;-64
2022/04/01 08:35:32;;;;;;;15.30;12.63;;;5.80;99.90;;;;;;5060543;28;20197;-66
2022/04/01 08:37:58;;;;;;;14.50;13.00;;;5.50;99.90;;;;;;5041312;28;20235;-66
2022/04/01 08:40:25;;;;;;;14.90;12.65;;;5.60;99.90;;;;;;5062102;28;20179;-66
2022/04/01 08:42:51;;;;;;;14.35;12.82;;;5.70;99.90;;;;;;5057471;28;20203;-63
2022/04/01 08:45:18;;;;;;;13.27;11.40;;;5.90;99.90;;;;;;5052451;28;20268;-66
2022/04/01 08:47:44;;;;;;;12.75;11.02;;;5.80;99.90;;;;;;5044006;28;20512;-62
2022/04/01 08:50:10;;;;;;;14.68;13.00;;;5.30;99.90;;;;;;5051976;28;20222;-60
2022/04/01 08:52:37;;;;;;;13.98;11.95;;;5.90;99.90;;;;;;5058565;28;20241;-61
2022/04/01 08:55:08;;;;;;;14.38;12.40;;;5.40;99.90;;;;;;5075459;28;20651;-61
2022/04/01 08:57:38;;;;;;;15.48;12.93;;;5.50;99.90;;;;;;5058112;28;20774;-64
2022/04/01 09:00:16;;;;;;;13.25;11.85;;;4.90;99.90;;;;;;5056507;28;20191;-64
2022/04/01 09:03:00;;;;;;;15.85;12.20;;;5.40;99.90;;;;;;5057557;28;20215;-70
2022/04/01 09:05:26;;;;;;;17.50;13.75;;;5.50;99.90;;;;;;5057434;28;20180;-59
2022/04/01 09:08:02;;;;;;;11.77;10.43;;;5.70;99.90;;;;;;5064244;28;20214;-63
2022/04/01 09:10:29;;;;;;;12.82;11.10;;;5.70;99.90;;;;;;5052585;28;20445;-67
2022/04/01 09:12:55;;;;;;;12.98;11.07;;;5.30;99.90;;;;;;5054495;28;20215;-66
2022/04/01 09:15:21;;;;;;;14.13;10.63;;;5.20;99.90;;;;;;5040348;28;20277;-67
2022/04/01 09:17:48;;;;;;;11.93;10.05;;;5.30;99.90;;;;;;5057157;28;20209;-66
2022/04/01 09:20:14;;;;;;;12.00;10.30;;;4.80;99.90;;;;;;5052548;28;20186;-61
2022/04/01 09:22:42;;;;;;;12.38;10.25;;;5.20;99.90;;;;;;5054416;28;20206;-65
2022/04/01 09:25:14;;;;;;;14.00;10.43;;;5.20;99.90;;;;;;5058266;28;20194;-61
2022/04/01 09:27:50;;;;;;;17.38;10.55;;;5.80;99.90;;;;;;5050176;28;20187;-59
2022/04/01 09:30:22;;;;;;;11.40;10.07;;;5.40;99.90;;;;;;5055627;28;20183;-64
2022/04/01 09:32:51;;;;;;;12.70;9.75;;;5.50;99.90;;;;;;5051182;28;20626;-62
2022/04/01 09:35:20;;;;;;;11.95;10.05;;;5.30;99.90;;;;;;5051107;28;20236;-63
2022/04/01 09:37:54;;;;;;;14.43;11.77;;;5.10;99.90;;;;;;5060399;28;20291;-62
2022/04/01 09:40:22;;;;;;;11.68;9.43;;;4.60;99.90;;;;;;5050989;28;20235;-62
2022/04/01 09:42:50;;;;;;;12.00;10.07;;;5.20;99.90;;;;;;5034691;28;20202;-62
2022/04/01 09:45:21;;;;;;;10.93;9.52;;;5.30;99.90;;;;;;5045074;28;20213;-63
2022/04/01 09:48:04;;;;;;;11.88;9.93;;;4.90;99.90;;;;;;5050329;28;20198;-62
2022/04/01 09:50:33;;;;;;;10.45;9.25;;;5.20;99.90;;;;;;5050051;28;20494;-62
2022/04/01 09:53:21;;;;;;;11.25;9.50;;;5.20;99.90;;;;;;5050094;28;20217;-63
2022/04/01 09:55:49;;;;;;;11.45;9.85;;;5.40;99.90;;;;;;5056543;28;20633;-63
2022/04/01 09:58:17;;;;;;;10.88;9.15;;;5.40;99.90;;;;;;5047684;28;20212;-62
2022/04/01 10:00:44;;;;;;;12.20;9.93;;;5.20;99.90;;;;;;5051456;28;20533;-63
2022/04/01 10:03:11;;;;;;;11.32;9.60;;;5.40;99.90;;;;;;5050998;28;20212;-63
2022/04/01 10:05:39;;;;;;;10.43;8.90;;;5.40;99.90;;;;;;5050852;28;20264;-62
2022/04/01 10:08:07;;;;;;;10.60;9.50;;;4.90;99.90;;;;;;5063197;28;20276;-62
2022/04/01 10:10:34;;;;;;;10.35;8.77;;;5.30;99.90;;;;;;5054932;28;20483;-62
2022/04/01 10:13:24;;;;;;;14.68;9.80;;;5.40;99.90;;;;;;5057473;28;20645;-62
2022/04/01 10:15:50;;;;;;;11.10;8.93;;;5.50;99.90;;;;;;5050092;28;20203;-62
2022/04/01 10:18:19;;;;;;;25.67;9.73;;;5.40;99.90;;;;;;5052245;28;20284;-62
2022/04/01 10:20:45;;;;;;;11.13;8.98;;;5.20;99.90;;;;;;5053639;28;20211;-62
2022/04/01 10:23:12;;;;;;;10.40;8.87;;;5.80;99.90;;;;;;5061505;28;20230;-63
2022/04/01 10:25:51;;;;;;;8.52;7.72;;;5.60;99.90;;;;;;5065729;28;20428;-62
2022/04/01 10:28:19;;;;;;;7.00;6.18;;;5.40;99.90;;;;;;5069439;28;20643;-62
2022/04/01 10:31:00;;;;;;;7.90;6.80;;;5.50;99.90;;;;;;5053739;28;20183;-63
2022/04/01 10:33:36;;;;;;;6.13;5.40;;;5.50;99.90;;;;;;5062532;28;20661;-62
2022/04/01 10:36:15;;;;;;;7.88;6.18;;;5.30;99.90;;;;;;5049671;28;20192;-62
2022/04/01 10:38:41;;;;;;;6.60;5.43;;;5.20;99.90;;;;;;5049090;28;20203;-62
2022/04/01 10:41:09;;;;;;;6.43;5.17;;;5.50;99.90;;;;;;5052027;28;20190;-62
2022/04/01 10:43:42;;;;;;;6.15;5.55;;;5.50;99.90;;;;;;5048060;28;20201;-62
2022/04/01 10:46:13;;;;;;;5.43;4.93;;;5.40;99.90;;;;;;5048309;28;20176;-63
2022/04/01 10:52:22;;;;;;;5.05;4.55;;;5.00;99.90;;;;;;5049208;28;20214;-63
2022/04/01 10:54:50;;;;;;;6.07;4.43;;;4.70;99.90;;;;;;5050518;28;20228;-62
2022/04/01 10:57:27;;;;;;;6.35;5.75;;;5.50;99.90;;;;;;5049219;28;20213;-62
2022/04/01 10:59:54;;;;;;;5.90;4.97;;;5.10;99.90;;;;;;5049242;28;20194;-62
2022/04/01 11:02:22;;;;;;;4.90;4.40;;;5.20;99.90;;;;;;5040438;28;20320;-62
2022/04/01 11:04:51;;;;;;;4.78;4.32;;;5.30;99.90;;;;;;5055036;28;20228;-62
2022/04/01 11:07:23;;;;;;;5.95;4.30;;;5.30;99.90;;;;;;5058561;28;20187;-63
2022/04/01 11:10:07;;;;;;;5.72;4.93;;;5.30;99.90;;;;;;5040252;28;20240;-62
2022/04/01 11:12:35;;;;;;;4.47;4.05;;;5.40;99.90;;;;;;5048006;28;20238;-62
2022/04/01 11:17:35;;;;;;;5.18;4.68;;;5.20;99.90;;;;;;5052885;28;20243;-62
2022/04/01 11:20:05;;;;;;;5.18;4.78;;;4.80;99.90;;;;;;5057137;28;20589;-62
2022/04/01 11:22:52;;;;;;;4.63;3.97;;;5.10;99.90;;;;;;5032240;28;20253;-62
2022/04/01 11:25:33;;;;;;;4.13;3.72;;;5.20;99.90;;;;;;5054117;28;20346;-60
2022/04/01 11:28:06;;;;;;;5.13;4.30;;;4.70;99.90;;;;;;5043095;28;20205;-61
2022/04/01 11:30:33;;;;;;;6.28;4.60;;;4.70;99.90;;;;;;5052658;28;20196;-69
2022/04/01 11:33:06;;;;;;;4.28;3.92;;;4.90;99.90;;;;;;5048899;28;20292;-60
2022/04/01 11:35:36;;;;;;;4.45;4.05;;;5.10;99.90;;;;;;5052558;28;20213;-62
2022/04/01 11:38:02;;;;;;;4.80;4.40;;;4.80;99.90;;;;;;5056703;28;20218;-61
2022/04/01 11:40:30;;;;;;;4.32;3.95;;;5.20;99.90;;;;;;5062434;28;20186;-61
2022/04/01 11:43:02;;;;;;;4.95;4.45;;;4.70;99.90;;;;;;5051348;28;20315;-64
2022/04/01 11:45:40;;;;;;;4.55;4.13;;;5.30;99.90;;;;;;5035333;28;20192;-61
2022/04/01 11:48:15;;;;;;;4.72;4.28;;;5.00;99.90;;;;;;5064800;28;20616;-62
2022/04/01 11:50:46;;;;;;;4.63;4.20;;;5.10;99.90;;;;;;5056680;28;20201;-61
2022/04/01 11:53:39;;;;;;;5.65;5.15;;;4.80;99.90;;;;;;5059605;28;20279;-60
2022/04/01 11:56:08;;;;;;;5.38;4.88;;;4.10;99.90;;;;;;5055628;28;20202;-62
2022/04/01 11:58:51;;;;;;;5.57;5.07;;;4.90;99.90;;;;;;5052876;28;20203;-61
2022/04/01 12:01:56;;;;;;;5.97;5.47;;;5.20;99.90;;;;;;5049027;28;20182;-63
2022/04/01 12:04:40;;;;;;;4.80;4.30;;;5.10;99.90;;;;;;5060583;28;20189;-64
2022/04/01 12:09:57;;;;;;;5.30;4.80;;;5.00;99.90;;;;;;5053917;28;20569;-63
2022/04/01 12:12:24;;;;;;;4.97;4.43;;;5.20;99.90;;;;;;5055636;28;20226;-61
2022/04/01 12:14:49;;;;;;;6.10;5.50;;;4.90;99.90;;;;;;5062369;28;20186;-61
2022/04/01 12:17:15;;;;;;;6.20;5.60;;;5.40;99.90;;;;;;5055067;28;20189;-62
2022/04/01 12:19:40;;;;;;;5.17;4.63;;;5.30;99.90;;;;;;5052033;28;20568;-63
2022/04/01 12:22:08;;;;;;;5.10;4.70;;;5.60;99.90;;;;;;5054202;28;20203;-65
2022/04/01 12:24:35;;;;;;;5.78;5.10;;;5.20;99.90;;;;;;5052327;28;20249;-62
2022/04/01 12:27:05;;;;;;;5.57;5.18;;;5.60;99.90;;;;;;5052296;28;20893;-67
2022/04/01 12:29:31;;;;;;;5.57;5.07;;;5.30;99.90;;;;;;5058070;28;20315;-68
2022/04/01 12:32:09;;;;;;;6.30;5.70;;;5.70;99.90;;;;;;5055715;28;20209;-65
2022/04/01 12:34:34;;;;;;;5.53;4.90;;;5.10;99.90;;;;;;5051862;28;20448;-66
2022/04/01 12:37:01;;;;;;;6.93;6.33;;;5.30;99.90;;;;;;5063116;28;20199;-61
2022/04/01 12:39:33;;;;;;;6.97;6.28;;;4.60;99.90;;;;;;5057973;28;20219;-64
2022/04/01 12:42:01;;;;;;;6.57;5.97;;;5.00;99.90;;;;;;5064069;28;20247;-61
2022/04/01 12:44:32;;;;;;;7.22;6.05;;;5.20;99.90;;;;;;5053609;28;20176;-64
2022/04/01 12:47:00;;;;;;;7.43;6.82;;;5.60;99.90;;;;;;5052881;28;20673;-66
2022/04/01 12:49:27;;;;;;;6.55;5.95;;;5.30;99.90;;;;;;5058670;28;20275;-64
2022/04/01 12:52:02;;;;;;;6.57;5.97;;;5.40;99.90;;;;;;5038154;28;20199;-61
2022/04/01 12:54:38;;;;;;;6.80;6.20;;;5.30;99.90;;;;;;5037315;28;20183;-64
2022/04/01 12:57:11;;;;;;;5.85;5.25;;;5.00;99.90;;;;;;5051225;28;20210;-65
2022/04/01 12:59:42;;;;;;;6.63;5.90;;;5.00;99.90;;;;;;5032735;28;20238;-66
2022/04/01 13:02:12;;;;;;;6.90;6.22;;;5.40;99.90;;;;;;5035538;28;20611;-64
2022/04/01 13:04:53;;;;;;;7.00;6.30;;;5.50;99.90;;;;;;5049982;28;20672;-67
2022/04/01 13:07:22;;;;;;;7.65;6.95;;;5.10;99.90;;;;;;5052611;28;20570;-67
2022/04/01 13:09:53;;;;;;;9.00;6.85;;;4.70;99.90;;;;;;5063519;28;20711;-67
2022/04/01 13:12:40;;;;;;;7.78;6.90;;;5.10;99.90;;;;;;5051247;28;20275;-66
2022/04/01 13:15:09;;;;;;;7.57;6.80;;;5.10;99.90;;;;;;5054136;28;20196;-66